Time;durP1;ratioP1;P1;durP2;ratioP2;P2;SDS_P1;SDS_P2;PMS_P1;PMS_P2;Temp;Humidity;BMP_temperature;BMP_pressure;BME280_temperature;BME280_humidity;BME280_pressure;Samples;Min_cycle;Max_cycle;Signal;HPM_P1;HPM_P2
2021/12/27 00:01:59;;;;;;;16.10;5.70;;;;;;;8.93;100.00;98764.91;5061249;28;20024;-73
2021/12/27 00:04:25;;;;;;;10.68;4.78;;;;;;;8.93;100.00;98771.25;5060405;28;20469;-73
2021/12/27 00:06:50;;;;;;;10.23;4.53;;;;;;;8.94;100.00;98760.97;5063493;28;20028;-73
2021/12/27 00:09:16;;;;;;;8.90;4.28;;;;;;;8.94;100.00;98755.44;5064645;28;20047;-73
2021/12/27 00:11:42;;;;;;;15.02;5.20;;;;;;;8.95;100.00;98746.03;5063804;28;20028;-73
2021/12/27 00:14:08;;;;;;;12.10;5.18;;;;;;;8.96;100.00;98742.09;5068598;28;20040;-73
2021/12/27 00:16:33;;;;;;;11.82;4.95;;;;;;;8.97;100.00;98731.84;5041996;28;20028;-72
2021/12/27 00:18:59;;;;;;;15.10;5.15;;;;;;;8.96;100.00;98728.25;5042091;28;20036;-73
2021/12/27 00:21:24;;;;;;;14.90;4.95;;;;;;;8.97;100.00;98720.75;5043101;28;20480;-73
2021/12/27 00:23:50;;;;;;;14.88;5.45;;;;;;;8.97;100.00;98715.22;5043128;28;20044;-73
2021/12/27 00:26:15;;;;;;;18.17;5.78;;;;;;;8.97;100.00;98713.28;5046412;28;20031;-73
2021/12/27 00:28:41;;;;;;;18.98;5.93;;;;;;;8.97;100.00;98710.53;5077864;28;20032;-73
2021/12/27 00:31:06;;;;;;;17.92;5.78;;;;;;;8.98;100.00;98705.78;5056941;28;20959;-73
2021/12/27 00:33:32;;;;;;;18.80;6.40;;;;;;;8.97;100.00;98702.22;5058074;28;20473;-73
2021/12/27 00:35:57;;;;;;;17.33;5.70;;;;;;;8.98;100.00;98703.03;5073583;28;20027;-73
2021/12/27 00:38:23;;;;;;;14.25;5.40;;;;;;;8.97;100.00;98702.22;5031942;28;20028;-73
2021/12/27 00:40:49;;;;;;;16.13;6.38;;;;;;;8.96;100.00;98692.25;5056891;28;20036;-74
2021/12/27 00:43:16;;;;;;;19.88;6.10;;;;;;;8.97;100.00;98691.13;5071641;28;20052;-73
2021/12/27 00:45:42;;;;;;;18.48;5.78;;;;;;;8.95;100.00;98680.38;5043121;28;20036;-73
2021/12/27 00:48:07;;;;;;;24.58;7.68;;;;;;;8.93;100.00;98685.41;5060938;28;20374;-74
2021/12/27 00:50:33;;;;;;;21.45;6.65;;;;;;;8.94;100.00;98677.94;5055743;28;20043;-74
2021/12/27 00:52:58;;;;;;;22.48;6.85;;;;;;;8.94;100.00;98675.16;5059603;28;20032;-73
2021/12/27 00:55:24;;;;;;;19.13;7.20;;;;;;;8.92;100.00;98666.38;5045914;28;20031;-73
2021/12/27 00:57:52;;;;;;;19.55;6.43;;;;;;;8.92;100.00;98653.34;5060009;28;20090;-74
2021/12/27 01:00:18;;;;;;;23.27;6.35;;;;;;;8.91;100.00;98648.13;5060278;28;20038;-74
2021/12/27 01:02:44;;;;;;;14.25;5.78;;;;;;;8.90;100.00;98652.06;5080950;28;20043;-74
2021/12/27 01:05:10;;;;;;;21.80;7.30;;;;;;;8.89;100.00;98653.19;5045359;28;20040;-73
2021/12/27 01:07:36;;;;;;;17.73;6.50;;;;;;;8.87;100.00;98652.72;5045448;28;20519;-73
2021/12/27 01:17:46;;;;;;;24.58;7.38;;;;;;;8.84;100.00;98623.72;5063227;28;20141;-73
2021/12/27 01:20:14;;;;;;;22.45;7.00;;;;;;;8.84;100.00;98622.91;5037488;28;20059;-73
2021/12/27 01:22:40;;;;;;;20.25;7.22;;;;;;;8.83;100.00;98612.97;5033276;28;20440;-73
2021/12/27 01:25:06;;;;;;;17.15;6.57;;;;;;;8.83;100.00;98613.81;5042424;28;20042;-73
2021/12/27 01:27:32;;;;;;;23.48;6.32;;;;;;;8.80;100.00;98603.38;5063791;28;20040;-73
2021/12/27 01:29:57;;;;;;;20.75;7.22;;;;;;;8.80;100.00;98597.03;5047982;28;20421;-73
2021/12/27 01:32:25;;;;;;;13.48;5.97;;;;;;;8.80;100.00;98586.75;5063112;28;20027;-73
2021/12/27 01:34:51;;;;;;;19.52;6.85;;;;;;;8.80;100.00;98583.19;5062109;28;20044;-73
2021/12/27 01:37:18;;;;;;;14.90;6.53;;;;;;;8.79;100.00;98573.25;5076639;28;21461;-73
2021/12/27 01:39:45;;;;;;;20.05;7.25;;;;;;;8.78;100.00;98568.88;5046428;28;20050;-73
2021/12/27 01:42:10;;;;;;;23.27;7.72;;;;;;;8.76;100.00;98557.31;5048262;28;20051;-73
2021/12/27 01:44:36;;;;;;;21.15;7.20;;;;;;;8.77;100.00;98562.50;5063105;28;20437;-73
2021/12/27 01:47:01;;;;;;;23.70;7.75;;;;;;;8.77;100.00;98559.75;5047496;28;20059;-73
2021/12/27 01:49:27;;;;;;;26.90;8.77;;;;;;;8.76;100.00;98557.31;5045251;28;20393;-73
2021/12/27 01:51:52;;;;;;;16.65;6.85;;;;;;;8.77;100.00;98558.94;5047568;28;20388;-73
2021/12/27 01:54:18;;;;;;;24.40;8.75;;;;;;;8.74;100.00;98543.78;5047934;28;20035;-73
2021/12/27 01:56:43;;;;;;;23.80;7.30;;;;;;;8.74;100.00;98546.56;5048650;28;20053;-73
2021/12/27 01:59:09;;;;;;;23.88;7.28;;;;;;;8.74;100.00;98549.34;5029261;28;20043;-73
2021/12/27 02:01:34;;;;;;;17.55;6.78;;;;;;;8.73;100.00;98545.75;5032457;28;20031;-73
2021/12/27 02:04:00;;;;;;;25.35;8.10;;;;;;;8.74;100.00;98543.78;5045412;28;20034;-73
2021/12/27 02:06:25;;;;;;;19.27;7.95;;;;;;;8.75;100.00;98542.66;5063120;28;20028;-73
2021/12/27 02:08:51;;;;;;;16.52;7.20;;;;;;;8.73;100.00;98539.41;5060435;28;20063;-73
2021/12/27 02:11:17;;;;;;;20.70;7.18;;;;;;;8.72;100.00;98533.06;5059144;28;20030;-73
2021/12/27 02:13:44;;;;;;;22.73;7.60;;;;;;;8.72;100.00;98521.19;5063960;28;20103;-73
2021/12/27 02:16:11;;;;;;;23.70;7.65;;;;;;;8.70;100.00;98515.97;5048037;28;20062;-73
2021/12/27 02:18:37;;;;;;;20.65;6.40;;;;;;;8.71;100.00;98525.09;5060949;28;20074;-73
2021/12/27 02:21:03;;;;;;;22.15;7.43;;;;;;;8.70;100.00;98524.28;5048361;28;20222;-73
2021/12/27 02:23:28;;;;;;;18.60;8.52;;;;;;;8.71;100.00;98520.34;5058828;28;20528;-73
2021/12/27 02:25:54;;;;;;;23.88;7.43;;;;;;;8.71;100.00;98520.34;5061198;28;20077;-73
2021/12/27 02:28:19;;;;;;;21.13;7.47;;;;;;;8.70;100.00;98534.53;5066278;28;20055;-73
2021/12/27 02:30:45;;;;;;;24.33;7.53;;;;;;;8.69;100.00;98538.44;5042825;28;20089;-73
2021/12/27 02:33:11;;;;;;;19.02;6.75;;;;;;;8.69;100.00;98535.66;5059063;28;20047;-73
2021/12/27 02:35:48;;;;;;;17.83;7.40;;;;;;;8.69;100.00;98539.28;5053373;28;20035;-73
2021/12/27 02:38:19;;;;;;;21.13;7.43;;;;;;;8.68;100.00;98543.16;5043299;28;20035;-74
2021/12/27 02:40:44;;;;;;;21.92;7.07;;;;;;;8.69;100.00;98549.50;5044726;28;20077;-73
2021/12/27 02:43:11;;;;;;;21.75;7.88;;;;;;;8.68;100.00;98543.16;5048277;28;20023;-73
2021/12/27 02:45:47;;;;;;;20.05;7.55;;;;;;;8.69;100.00;98525.44;5045982;28;20485;-73
2021/12/27 02:48:14;;;;;;;17.42;7.05;;;;;;;8.69;100.00;98500.53;5048263;28;20028;-73
2021/12/27 02:50:40;;;;;;;16.42;7.22;;;;;;;8.68;100.00;98496.13;5042560;28;20034;-73
2021/12/27 02:53:06;;;;;;;19.98;7.55;;;;;;;8.69;100.00;98492.22;5061208;28;20023;-73
2021/12/27 02:55:31;;;;;;;23.77;7.32;;;;;;;8.69;100.00;98495.00;5077707;28;20519;-73
2021/12/27 02:57:57;;;;;;;21.67;6.88;;;;;;;8.71;100.00;98502.94;5041386;28;20044;-73
2021/12/27 03:00:27;;;;;;;18.38;7.10;;;;;;;8.70;100.00;98515.97;5052870;28;20025;-73
2021/12/27 03:02:53;;;;;;;19.60;7.28;;;;;;;8.71;100.00;98536.97;5045266;28;20020;-73
2021/12/27 03:05:19;;;;;;;17.60;7.00;;;;;;;8.71;100.00;98530.63;5048472;28;20020;-73
2021/12/27 03:07:46;;;;;;;21.85;7.05;;;;;;;8.71;100.00;98497.41;5048202;28;20064;-73
2021/12/27 03:10:12;;;;;;;23.65;8.55;;;;;;;8.70;100.00;98455.09;5059748;28;20107;-73
2021/12/27 03:12:38;;;;;;;23.20;7.07;;;;;;;8.71;100.00;98475.28;5027878;28;20059;-73
2021/12/27 03:15:10;;;;;;;17.13;6.88;;;;;;;8.71;100.00;98498.22;5058470;28;20487;-73
2021/12/27 03:17:38;;;;;;;21.27;7.45;;;;;;;8.72;100.00;98494.34;5045445;28;20054;-73
2021/12/27 03:20:04;;;;;;;15.68;6.82;;;;;;;8.72;100.00;98488.00;5066245;28;20032;-73
2021/12/27 03:22:30;;;;;;;16.13;6.60;;;;;;;8.73;100.00;98462.72;5052092;28;20036;-73
2021/12/27 03:24:56;;;;;;;11.77;5.95;;;;;;;8.72;100.00;98449.25;5030271;28;20024;-73
2021/12/27 03:27:21;;;;;;;16.88;6.90;;;;;;;8.72;100.00;98446.47;5079702;28;20514;-73
2021/12/27 03:29:46;;;;;;;16.13;6.97;;;;;;;8.73;100.00;98437.81;5032121;28;20029;-74
2021/12/27 03:32:13;;;;;;;14.55;6.72;;;;;;;8.72;100.00;98422.38;5060818;28;20032;-73
2021/12/27 03:34:42;;;;;;;18.20;6.65;;;;;;;8.72;100.00;98416.84;5043453;28;20158;-73
2021/12/27 03:37:09;;;;;;;15.43;7.03;;;;;;;8.71;100.00;98409.66;5031256;28;20028;-73
2021/12/27 03:39:34;;;;;;;16.13;6.82;;;;;;;8.73;100.00;98407.38;5048417;28;20040;-73
2021/12/27 03:41:59;;;;;;;14.65;6.75;;;;;;;8.72;100.00;98404.97;5044697;28;20043;-73
2021/12/27 03:44:25;;;;;;;18.33;6.50;;;;;;;8.72;100.00;98404.97;5048047;28;20035;-73
2021/12/27 03:46:50;;;;;;;16.13;6.30;;;;;;;8.72;100.00;98391.13;5085301;28;20561;-73
2021/12/27 03:49:16;;;;;;;12.63;6.88;;;;;;;8.71;100.00;98390.28;5066345;28;20028;-73
2021/12/27 03:51:43;;;;;;;11.60;6.47;;;;;;;8.72;100.00;98380.84;5062730;28;20027;-73
2021/12/27 03:54:09;;;;;;;15.98;6.97;;;;;;;8.70;100.00;98363.78;5080274;28;20028;-73
2021/12/27 03:56:35;;;;;;;15.57;6.88;;;;;;;8.70;100.00;98352.69;5045572;28;20040;-73
2021/12/27 03:59:20;;;;;;;17.52;7.28;;;;;;;8.71;100.00;98356.28;5060591;28;20047;-73
2021/12/27 04:01:45;;;;;;;14.80;7.03;;;;;;;8.71;100.00;98351.53;5059649;28;20032;-73
2021/12/27 04:04:11;;;;;;;13.98;6.65;;;;;;;8.71;100.00;98336.91;5064788;28;20036;-73
2021/12/27 04:06:36;;;;;;;11.48;6.18;;;;;;;8.69;100.00;98323.41;5034037;28;20082;-73
2021/12/27 04:09:02;;;;;;;13.68;7.30;;;;;;;8.69;100.00;98317.88;5068941;28;20047;-73
2021/12/27 04:11:28;;;;;;;16.58;7.40;;;;;;;8.69;100.00;98320.66;5054577;28;20051;-73
2021/12/27 04:13:55;;;;;;;11.30;6.22;;;;;;;8.69;100.00;98317.88;5079325;28;20027;-73
2021/12/27 04:16:21;;;;;;;14.65;7.20;;;;;;;8.67;100.00;98309.09;5049714;28;20035;-73
2021/12/27 04:18:46;;;;;;;13.93;7.10;;;;;;;8.68;100.00;98298.84;5027108;28;20476;-73
2021/12/27 04:21:12;;;;;;;11.85;6.57;;;;;;;8.66;100.00;98295.59;5082030;28;20035;-73
2021/12/27 04:23:37;;;;;;;12.98;6.65;;;;;;;8.65;100.00;98292.00;5048912;28;20029;-73
2021/12/27 04:26:03;;;;;;;11.90;7.00;;;;;;;8.66;100.00;98285.34;5060739;28;20062;-73
2021/12/27 04:28:28;;;;;;;12.13;6.88;;;;;;;8.66;100.00;98278.97;5062400;28;20476;-73
2021/12/27 04:30:54;;;;;;;8.68;6.38;;;;;;;8.66;100.00;98279.81;5058437;28;20438;-73
2021/12/27 04:33:19;;;;;;;12.80;6.18;;;;;;;8.66;100.00;98285.34;5070536;28;20031;-73
2021/12/27 04:35:45;;;;;;;10.65;5.95;;;;;;;8.67;100.00;98277.84;5083443;28;20500;-73
2021/12/27 04:38:10;;;;;;;12.32;6.70;;;;;;;8.65;100.00;98264.34;5055193;28;20111;-73
2021/12/27 04:40:40;;;;;;;14.68;7.05;;;;;;;8.65;100.00;98261.56;5070030;28;20032;-73
2021/12/27 04:43:08;;;;;;;10.52;6.80;;;;;;;8.63;100.00;98255.56;5051435;28;20096;-73
2021/12/27 04:45:34;;;;;;;8.43;5.68;;;;;;;8.64;100.00;98257.19;5076473;28;20028;-73
2021/12/27 04:48:01;;;;;;;7.55;5.72;;;;;;;8.63;100.00;98260.28;5037310;28;20480;-73
2021/12/27 04:50:27;;;;;;;8.80;5.40;;;;;;;8.62;100.00;98259.47;5048029;28;20428;-73
2021/12/27 04:52:53;;;;;;;11.23;6.00;;;;;;;8.62;100.00;98251.19;5040738;28;20040;-74
2021/12/27 04:55:22;;;;;;;8.30;5.18;;;;;;;8.62;100.00;98253.16;5066073;28;20538;-73
2021/12/27 04:57:48;;;;;;;7.55;5.10;;;;;;;8.62;100.00;98242.06;5066212;28;20035;-72
2021/12/27 05:00:14;;;;;;;9.30;5.15;;;;;;;8.62;100.00;98234.59;5049457;28;20073;-73
2021/12/27 05:02:39;;;;;;;7.57;5.00;;;;;;;8.61;100.00;98235.75;5046343;28;20028;-73
2021/12/27 05:05:05;;;;;;;7.25;5.32;;;;;;;8.61;100.00;98238.50;5033036;28;20047;-73
2021/12/27 05:07:30;;;;;;;8.65;5.07;;;;;;;8.62;100.00;98247.63;5080519;28;20375;-73
2021/12/27 05:09:56;;;;;;;7.18;5.10;;;;;;;8.61;100.00;98252.34;5068299;28;20488;-73
2021/12/27 05:12:21;;;;;;;6.75;5.15;;;;;;;8.62;100.00;98261.44;5026702;28;20020;-73
2021/12/27 05:14:47;;;;;;;6.47;5.00;;;;;;;8.62;100.00;98278.03;5065512;28;20032;-73
2021/12/27 05:17:12;;;;;;;6.50;4.93;;;;;;;8.63;100.00;98274.13;5057252;28;20471;-72
2021/12/27 05:19:38;;;;;;;6.68;4.45;;;;;;;8.63;100.00;98258.31;5046231;28;20044;-73
2021/12/27 05:22:03;;;;;;;7.30;4.63;;;;;;;8.63;100.00;98246.44;5037622;28;20036;-73
2021/12/27 05:24:29;;;;;;;8.30;5.10;;;;;;;8.63;100.00;98252.78;5050358;28;20040;-73
2021/12/27 05:26:54;;;;;;;5.68;4.60;;;;;;;8.62;100.00;98244.84;5047280;28;20034;-73
2021/12/27 05:29:20;;;;;;;9.25;5.40;;;;;;;8.61;100.00;98244.03;5063248;28;20039;-73
2021/12/27 05:31:45;;;;;;;7.20;5.03;;;;;;;8.63;100.00;98244.50;5046201;28;20063;-74
2021/12/27 05:34:11;;;;;;;5.40;4.20;;;;;;;8.63;100.00;98255.56;5034299;28;20035;-73
2021/12/27 05:36:37;;;;;;;8.38;5.03;;;;;;;8.63;100.00;98257.53;5082533;28;20445;-73
2021/12/27 05:39:03;;;;;;;5.75;4.70;;;;;;;8.65;100.00;98258.81;5065465;28;20032;-73
2021/12/27 05:41:28;;;;;;;7.93;4.60;;;;;;;8.66;100.00;98265.97;5064980;28;20039;-73
2021/12/27 05:43:53;;;;;;;7.45;4.70;;;;;;;8.65;100.00;98261.56;5047116;28;20035;-73
2021/12/27 05:46:19;;;;;;;7.18;4.53;;;;;;;8.66;100.00;98262.38;5046292;28;20032;-73
2021/12/27 05:48:44;;;;;;;7.63;5.10;;;;;;;8.66;100.00;98254.91;5082730;28;20032;-73
2021/12/27 05:51:10;;;;;;;7.00;4.38;;;;;;;8.67;100.00;98248.22;5059448;28;20404;-73
2021/12/27 05:53:35;;;;;;;7.07;4.30;;;;;;;8.68;100.00;98241.53;5036197;28;20035;-73
2021/12/27 05:56:01;;;;;;;8.48;4.32;;;;;;;8.67;100.00;98244.66;5063802;28;20039;-73
2021/12/27 05:58:26;;;;;;;9.95;4.63;;;;;;;8.66;100.00;98252.16;5063440;28;20043;-73
2021/12/27 06:00:52;;;;;;;8.32;4.25;;;;;;;8.68;100.00;98258.13;5062945;28;20031;-73
2021/12/27 06:03:17;;;;;;;5.97;4.13;;;;;;;8.66;100.00;98252.16;5064702;28;20096;-73
2021/12/27 06:05:43;;;;;;;6.20;3.80;;;;;;;8.66;100.00;98256.84;5065219;28;20027;-73
2021/12/27 06:08:08;;;;;;;7.18;4.07;;;;;;;8.66;100.00;98257.69;5046467;28;20025;-73
2021/12/27 06:10:34;;;;;;;6.20;3.95;;;;;;;8.69;100.00;98262.53;5036264;28;20028;-73
2021/12/27 06:13:00;;;;;;;5.03;3.92;;;;;;;8.69;100.00;98261.69;5062575;28;20039;-73
2021/12/27 06:15:25;;;;;;;6.10;3.90;;;;;;;8.69;100.00;98256.16;5064235;28;20032;-73
2021/12/27 06:17:51;;;;;;;4.82;3.60;;;;;;;8.69;100.00;98256.16;5060627;28;20027;-73
2021/12/27 06:20:16;;;;;;;5.68;3.97;;;;;;;8.69;100.00;98256.16;5057526;28;20040;-73
2021/12/27 06:22:45;;;;;;;5.80;3.40;;;;;;;8.69;100.00;98257.00;5067010;28;20393;-74
2021/12/27 06:25:11;;;;;;;4.32;3.08;;;;;;;8.69;100.00;98257.00;5063946;28;20048;-73
2021/12/27 06:27:36;;;;;;;5.78;3.30;;;;;;;8.68;100.00;98255.38;5060635;28;20035;-73
2021/12/27 06:30:04;;;;;;;5.32;3.20;;;;;;;8.70;100.00;98258.63;5071973;28;20033;-74
2021/12/27 06:32:30;;;;;;;4.68;3.50;;;;;;;8.71;100.00;98253.88;5048834;28;20032;-73
2021/12/27 06:34:55;;;;;;;4.97;3.47;;;;;;;8.70;100.00;98264.16;5050752;28;20499;-73
2021/12/27 06:37:21;;;;;;;5.10;3.47;;;;;;;8.71;100.00;98270.50;5063304;28;20046;-73
2021/12/27 06:39:46;;;;;;;6.68;3.60;;;;;;;8.72;100.00;98280.44;5058080;28;20074;-73
2021/12/27 06:42:12;;;;;;;5.25;2.83;;;;;;;8.72;100.00;98281.22;5061722;28;20026;-73
2021/12/27 06:44:37;;;;;;;8.85;3.47;;;;;;;8.74;100.00;98280.88;5062514;28;20024;-73
2021/12/27 06:47:03;;;;;;;6.72;2.67;;;;;;;8.73;100.00;98276.50;5051612;28;20459;-73
2021/12/27 06:49:29;;;;;;;9.50;3.58;;;;;;;8.73;100.00;98274.53;5060490;28;20477;-73
2021/12/27 06:51:54;;;;;;;7.95;3.40;;;;;;;8.75;100.00;98267.84;5060837;28;20025;-73
2021/12/27 06:54:19;;;;;;;7.85;3.13;;;;;;;8.75;100.00;98276.16;5044560;28;20088;-73
2021/12/27 06:56:45;;;;;;;4.97;2.95;;;;;;;8.76;100.00;98283.31;5061112;28;20109;-73
2021/12/27 06:59:11;;;;;;;7.80;3.33;;;;;;;8.77;100.00;98298.78;5040537;28;20031;-73
2021/12/27 07:01:37;;;;;;;11.95;3.05;;;;;;;8.78;100.00;98304.00;5044572;28;20145;-73
2021/12/27 07:04:02;;;;;;;6.88;2.88;;;;;;;8.79;100.00;98307.56;5043856;28;20090;-73
2021/12/27 07:06:28;;;;;;;10.18;3.00;;;;;;;8.79;100.00;98307.56;5045248;28;20074;-73
2021/12/27 07:08:53;;;;;;;11.55;2.92;;;;;;;8.78;100.00;98304.00;5045522;28;20384;-74
2021/12/27 07:11:19;;;;;;;11.27;2.83;;;;;;;8.78;100.00;98311.47;5078620;28;20083;-73
2021/12/27 07:13:44;;;;;;;9.82;2.50;;;;;;;8.76;100.00;98305.47;5047961;28;20512;-73
2021/12/27 07:16:10;;;;;;;10.20;2.63;;;;;;;8.72;100.00;98300.59;5041822;28;20025;-73
2021/12/27 07:18:35;;;;;;;11.77;2.38;;;;;;;8.70;100.00;98300.13;5081293;28;20034;-73
2021/12/27 07:21:01;;;;;;;10.02;2.80;;;;;;;8.67;100.00;98306.34;5043340;28;20039;-77
2021/12/27 07:23:26;;;;;;;8.57;2.70;;;;;;;8.62;100.00;98314.81;5046432;28;20096;-74
2021/12/27 07:25:52;;;;;;;9.02;2.60;;;;;;;8.57;100.00;98328.03;5059813;28;20093;-74
2021/12/27 07:28:17;;;;;;;7.90;2.40;;;;;;;8.54;100.00;98329.50;5052848;28;20401;-74
2021/12/27 07:30:49;;;;;;;7.25;2.47;;;;;;;8.49;100.00;98330.50;5133161;27;20380;-72
2021/12/27 07:33:15;;;;;;;7.40;2.13;;;;;;;8.44;100.00;98336.25;5100974;27;20032;-71
2021/12/27 07:35:40;;;;;;;7.82;2.08;;;;;;;8.40;100.00;98340.00;5115816;28;20040;-72
2021/12/27 07:38:06;;;;;;;12.43;2.70;;;;;;;8.36;100.00;98339.84;5108961;28;20027;-71
2021/12/27 07:40:32;;;;;;;8.07;2.05;;;;;;;8.30;100.00;98341.13;5081410;27;20058;-72
2021/12/27 07:42:57;;;;;;;10.02;2.88;;;;;;;8.25;100.00;98353.22;5079389;28;20027;-72
2021/12/27 07:45:23;;;;;;;11.55;3.10;;;;;;;8.24;100.00;98361.81;5080196;28;20674;-72
2021/12/27 07:47:48;;;;;;;11.93;2.60;;;;;;;8.18;100.00;98361.19;5081476;28;20038;-72
2021/12/27 07:50:14;;;;;;;11.27;2.92;;;;;;;8.17;100.00;98367.88;5070801;28;20027;-72
2021/12/27 07:52:39;;;;;;;10.13;2.85;;;;;;;8.16;100.00;98362.66;5100303;27;20437;-72
2021/12/27 07:55:05;;;;;;;14.45;2.90;;;;;;;8.14;100.00;98359.44;5097727;27;20913;-72
2021/12/27 07:57:31;;;;;;;10.85;2.75;;;;;;;8.11;100.00;98363.69;5063719;28;20084;-72
2021/12/27 07:59:56;;;;;;;13.30;3.15;;;;;;;8.10;100.00;98362.03;5077955;27;20032;-72
2021/12/27 08:02:22;;;;;;;15.73;3.00;;;;;;;8.10;100.00;98359.28;5082438;28;20054;-72
2021/12/27 08:04:47;;;;;;;15.20;3.33;;;;;;;8.11;100.00;98369.22;5058707;28;20058;-72
2021/12/27 08:07:13;;;;;;;16.77;3.13;;;;;;;8.11;100.00;98368.38;5082752;28;20046;-72
2021/12/27 08:09:38;;;;;;;30.95;16.38;;;;;;;8.10;100.00;98375.84;5079784;28;20088;-72
2021/12/27 08:12:05;;;;;;;27.70;12.45;;;;;;;8.10;100.00;98381.38;5064514;27;20039;-72
2021/12/27 08:14:31;;;;;;;24.50;11.00;;;;;;;8.11;100.00;98388.56;5078243;27;20110;-72
2021/12/27 08:16:56;;;;;;;21.63;9.88;;;;;;;8.12;100.00;98395.69;5066297;28;20081;-72
2021/12/27 08:19:22;;;;;;;20.48;8.13;;;;;;;8.11;100.00;98390.50;5068514;28;20032;-72
2021/12/27 08:21:48;;;;;;;25.55;8.57;;;;;;;8.12;100.00;98384.66;5097970;28;20448;-72
2021/12/27 08:24:13;;;;;;;22.35;8.57;;;;;;;8.14;100.00;98390.66;5128546;27;20023;-72
2021/12/27 08:26:39;;;;;;;20.85;6.88;;;;;;;8.15;100.00;98394.22;5081397;27;20039;-72
2021/12/27 08:29:06;;;;;;;25.08;7.07;;;;;;;8.17;100.00;98394.72;5068887;28;20047;-72
2021/12/27 08:31:31;;;;;;;21.17;6.05;;;;;;;8.18;100.00;98402.66;5098456;27;20034;-72
2021/12/27 08:33:57;;;;;;;22.63;7.25;;;;;;;8.21;100.00;98410.31;5096640;27;20031;-72
2021/12/27 08:36:23;;;;;;;24.83;6.57;;;;;;;8.21;100.00;98413.06;5096857;28;20019;-72
2021/12/27 08:38:49;;;;;;;22.38;6.18;;;;;;;8.22;100.00;98423.00;5105592;27;20046;-72
2021/12/27 08:41:15;;;;;;;30.15;6.03;;;;;;;8.26;100.00;98431.44;5087839;28;20404;-72
2021/12/27 08:43:41;;;;;;;24.80;5.93;;;;;;;8.27;100.00;98431.13;5083048;28;20031;-72
2021/12/27 08:46:06;;;;;;;28.52;6.55;;;;;;;8.29;100.00;98445.41;5048531;28;20023;-72
2021/12/27 08:48:32;;;;;;;28.20;6.30;;;;;;;8.33;100.00;98442.00;5086323;28;20032;-72
2021/12/27 08:50:58;;;;;;;25.33;5.78;;;;;;;8.37;100.00;98451.28;5083206;28;20035;-72
2021/12/27 08:53:24;;;;;;;23.13;5.20;;;;;;;8.38;100.00;98450.94;5060908;28;20019;-72
2021/12/27 08:55:49;;;;;;;26.05;5.20;;;;;;;8.40;100.00;98445.91;5068914;28;20032;-72
2021/12/27 08:58:15;;;;;;;33.95;5.45;;;;;;;8.42;100.00;98463.00;5074204;28;20027;-72
2021/12/27 09:00:41;;;;;;;39.40;6.10;;;;;;;8.41;100.00;98466.91;5083162;28;20050;-72
2021/12/27 09:03:06;;;;;;;37.53;6.43;;;;;;;8.44;100.00;98479.25;5077240;28;20039;-72
2021/12/27 09:05:32;;;;;;;40.28;6.10;;;;;;;8.44;100.00;98471.78;5065573;28;20050;-72
2021/12/27 09:07:57;;;;;;;43.00;6.25;;;;;;;8.46;100.00;98480.56;5084626;28;20035;-72
2021/12/27 09:10:23;;;;;;;41.38;6.57;;;;;;;8.46;100.00;98491.63;5099221;28;20050;-72
2021/12/27 09:12:48;;;;;;;40.00;5.32;;;;;;;8.48;100.00;98491.31;5078458;28;20034;-72
2021/12/27 09:15:15;;;;;;;38.22;5.65;;;;;;;8.49;100.00;98484.63;5074052;28;20028;-72
2021/12/27 09:17:40;;;;;;;50.40;6.43;;;;;;;8.53;100.00;98490.31;5083108;28;20039;-72
2021/12/27 09:20:06;;;;;;;46.78;6.70;;;;;;;8.58;100.00;98493.72;5079181;28;20028;-72
2021/12/27 09:22:32;;;;;;;37.03;6.22;;;;;;;8.59;100.00;98492.56;5080360;28;20388;-72
2021/12/27 09:24:59;;;;;;;37.20;5.15;;;;;;;8.64;100.00;98495.16;5083364;28;20036;-72
2021/12/27 09:27:24;;;;;;;42.80;6.70;;;;;;;8.72;100.00;98490.75;5069343;28;20090;-72
2021/12/27 09:29:51;;;;;;;40.30;6.22;;;;;;;8.79;100.00;98502.09;5050188;28;20065;-72
2021/12/27 09:32:17;;;;;;;48.50;6.60;;;;;;;8.88;100.00;98507.59;5044941;28;20060;-72
2021/12/27 09:34:42;;;;;;;35.60;6.40;;;;;;;8.94;100.00;98520.13;5057636;28;20107;-72
2021/12/27 09:37:08;;;;;;;48.70;7.13;;;;;;;9.05;100.00;98509.50;5037622;28;20385;-72
2021/12/27 09:39:33;;;;;;;38.08;6.63;;;;;;;9.11;100.00;98517.28;5057563;28;20020;-72
2021/12/27 09:41:59;;;;;;;49.15;6.50;;;;;;;9.19;100.00;98512.84;5054906;28;20082;-72
2021/12/27 09:44:25;;;;;;;51.85;7.25;;;;;;;9.27;100.00;98528.59;5059145;28;20028;-72
2021/12/27 09:46:50;;;;;;;45.83;6.35;;;;;;;9.36;100.00;98528.56;5025224;28;20054;-72
2021/12/27 09:49:16;;;;;;;46.70;6.30;;;;;;;9.45;100.00;98542.38;5044143;28;20025;-73
2021/12/27 09:51:42;;;;;;;58.88;8.82;;;;;;;9.51;100.00;98544.63;5040381;28;20028;-72
2021/12/27 09:54:08;;;;;;;47.00;7.20;;;;;;;9.58;100.00;98553.22;5041801;28;20474;-72
2021/12/27 09:56:33;;;;;;;49.22;7.38;;;;;;;9.65;100.00;98543.56;5017954;28;20024;-72
2021/12/27 09:58:59;;;;;;;50.05;7.68;;;;;;;9.74;100.00;98541.53;5041380;28;20017;-72
2021/12/27 10:01:25;;;;;;;50.40;7.10;;;;;;;9.81;100.00;98541.84;5024520;28;20081;-72
2021/12/27 10:03:55;;;;;;;67.30;8.02;;;;;;;9.88;100.00;98544.88;5042126;28;20044;-72
2021/12/27 10:06:21;;;;;;;56.42;8.48;;;;;;;9.95;100.00;98545.16;5048948;28;20022;-72
2021/12/27 10:08:47;;;;;;;56.35;7.93;;;;;;;9.99;100.00;98543.31;5036783;28;20052;-72
2021/12/27 10:11:17;;;;;;;60.40;8.07;;;;;;;10.05;100.00;98550.28;5037839;28;20037;-72
2021/12/27 10:14:12;;;;;;;65.22;7.50;;;;;;;10.11;100.00;98561.16;5051537;28;20116;-72
2021/12/27 10:16:41;;;;;;;62.30;8.13;;;;;;;10.15;100.00;98565.72;5054492;28;20104;-72
2021/12/27 10:19:08;;;;;;;69.80;8.98;;;;;;;10.20;100.00;98573.03;5042670;28;20089;-73
2021/12/27 10:21:34;;;;;;;66.07;8.95;;;;;;;10.25;100.00;98581.13;5057731;28;20025;-72
2021/12/27 10:24:06;;;;;;;60.60;8.50;;;;;;;10.30;100.00;98572.63;5039421;28;20486;-72
2021/12/27 10:26:33;;;;;;;72.00;9.60;;;;;;;10.34;100.00;98584.69;5051840;28;20037;-72
2021/12/27 10:29:17;;;;;;;60.30;7.75;;;;;;;10.38;100.00;98588.41;5042465;28;20048;-72
2021/12/27 10:31:56;;;;;;;71.72;8.30;;;;;;;10.45;100.00;98597.00;5058608;28;20130;-72
2021/12/27 10:34:24;;;;;;;66.47;9.27;;;;;;;10.49;100.00;98595.16;5077605;28;20024;-72
2021/12/27 10:37:05;;;;;;;81.97;9.65;;;;;;;10.55;100.00;98597.72;5043677;28;20035;-72
2021/12/27 10:39:44;;;;;;;52.50;7.57;;;;;;;10.58;100.00;98603.41;5079756;28;20032;-72
2021/12/27 10:42:11;;;;;;;66.15;8.68;;;;;;;10.61;100.00;98607.47;5093862;28;20071;-72
2021/12/27 10:44:36;;;;;;;63.88;8.80;;;;;;;10.65;100.00;98609.22;5072532;28;20028;-72
2021/12/27 10:47:03;;;;;;;59.40;8.45;;;;;;;10.67;100.00;98608.88;5094716;28;20031;-72
2021/12/27 10:49:48;;;;;;;65.53;8.95;;;;;;;10.71;100.00;98607.84;5060594;28;20459;-72
2021/12/27 10:52:13;;;;;;;64.78;8.65;;;;;;;10.76;100.00;98611.59;5059731;28;20380;-72
2021/12/27 10:54:39;;;;;;;71.97;9.20;;;;;;;10.77;100.00;98608.44;5076416;28;20042;-72
2021/12/27 10:57:04;;;;;;;76.63;10.10;;;;;;;10.82;100.00;98616.56;5060328;28;20039;-72
2021/12/27 10:59:30;;;;;;;73.05;10.80;;;;;;;10.86;100.00;98617.50;5077072;28;20035;-72
2021/12/27 11:01:55;;;;;;;66.00;9.13;;;;;;;10.88;100.00;98622.72;5077786;28;20472;-72
2021/12/27 11:04:21;;;;;;;66.43;9.57;;;;;;;10.92;100.00;98623.66;5059657;28;20080;-72
2021/12/27 11:06:48;;;;;;;67.57;9.45;;;;;;;10.94;100.00;98624.94;5060270;28;20019;-72
2021/12/27 11:09:14;;;;;;;67.90;8.95;;;;;;;10.99;100.00;98631.44;5061651;28;20051;-72
2021/12/27 11:11:40;;;;;;;73.20;10.25;;;;;;;11.00;100.00;98639.41;5061267;28;20020;-72
2021/12/27 11:14:06;;;;;;;58.88;9.73;;;;;;;11.02;100.00;98636.31;5060477;28;20111;-72
2021/12/27 11:16:32;;;;;;;70.68;9.32;;;;;;;11.03;100.00;98627.66;5036719;28;20032;-72
2021/12/27 11:18:58;;;;;;;68.63;10.27;;;;;;;11.03;100.00;98635.16;5072127;28;20123;-72
2021/12/27 11:21:28;;;;;;;80.93;10.50;;;;;;;11.03;100.00;98621.25;5057913;28;20020;-72
2021/12/27 11:23:54;;;;;;;63.28;9.52;;;;;;;11.02;100.00;98625.19;5074145;28;20400;-72
2021/12/27 11:26:24;;;;;;;80.22;11.30;;;;;;;11.01;100.00;98624.41;5074566;28;20020;-72
2021/12/27 11:28:50;;;;;;;69.35;9.40;;;;;;;11.01;100.00;98618.03;5054978;28;20501;-74
2021/12/27 11:31:24;;;;;;;64.28;11.05;;;;;;;11.00;100.00;98611.63;5034633;28;20056;-72